Time;durP1;ratioP1;P1;durP2;ratioP2;P2;SDS_P1;SDS_P2;PMS_P1;PMS_P2;Temp;Humidity;BMP_temperature;BMP_pressure;BME280_temperature;BME280_humidity;BME280_pressure;Samples;Min_cycle;Max_cycle;Signal;HPM_P1;HPM_P2
2022/10/15 00:02:11;;;;;;;67.55;37.70;;;;;;;9.45;100.00;98029.20;1769823;81;20908;-81
2022/10/15 00:04:37;;;;;;;62.25;39.15;;;;;;;9.43;100.00;98026.78;1752253;81;21606;-80
2022/10/15 00:07:03;;;;;;;63.33;37.90;;;;;;;9.43;100.00;98031.38;1739230;82;20893;-81
2022/10/15 00:09:29;;;;;;;58.50;35.48;;;;;;;9.42;100.00;98030.56;1717347;83;21027;-81
2022/10/15 00:11:55;;;;;;;61.53;34.85;;;;;;;9.42;100.00;98027.05;1749616;81;21133;-81
2022/10/15 00:14:21;;;;;;;55.05;32.80;;;;;;;9.40;100.00;98025.98;1731014;82;21090;-81
2022/10/15 00:16:47;;;;;;;55.03;31.70;;;;;;;9.43;100.00;98024.62;1731243;82;20975;-81
2022/10/15 00:19:13;;;;;;;49.33;30.90;;;;;;;9.41;100.00;98018.67;1731017;82;21041;-81
2022/10/15 00:21:39;;;;;;;54.35;32.93;;;;;;;9.43;100.00;98020.02;1731059;82;21014;-81
2022/10/15 00:24:06;;;;;;;54.88;33.55;;;;;;;9.37;100.00;98014.33;1731320;82;21122;-81
2022/10/15 00:26:32;;;;;;;56.70;33.42;;;;;;;9.30;100.00;98019.20;1730885;82;21054;-81
2022/10/15 00:29:01;;;;;;;54.73;32.58;;;;;;;9.23;100.00;98014.09;1731085;82;21685;-81
2022/10/15 00:31:28;;;;;;;49.25;32.08;;;;;;;9.17;100.00;98014.35;1731008;82;21058;-81
2022/10/15 00:33:56;;;;;;;52.93;32.10;;;;;;;9.12;100.00;98008.94;1730819;82;21043;-81
2022/10/15 00:36:26;;;;;;;57.08;31.55;;;;;;;9.08;100.00;98014.08;1730945;82;21551;-81
2022/10/15 00:38:52;;;;;;;51.50;31.57;;;;;;;9.07;100.00;98013.00;1730247;82;21039;-81
2022/10/15 00:41:27;;;;;;;55.05;31.73;;;;;;;9.03;100.00;98018.92;1730786;81;20983;-81
2022/10/15 00:43:55;;;;;;;62.33;37.78;;;;;;;8.98;100.00;98015.43;1730384;82;21083;-81
2022/10/15 00:46:34;;;;;;;55.92;33.05;;;;;;;8.98;100.00;98012.73;1731029;82;21090;-81
2022/10/15 00:49:28;;;;;;;48.40;31.62;;;;;;;8.93;100.00;98016.22;1730863;82;21830;-81
2022/10/15 00:52:05;;;;;;;49.90;30.10;;;;;;;8.86;100.00;98010.27;1730694;82;21444;-81
2022/10/15 00:54:35;;;;;;;55.00;31.48;;;;;;;8.80;100.00;98010.52;1731198;82;21050;-81
2022/10/15 00:57:01;;;;;;;56.15;32.65;;;;;;;8.76;100.00;98008.36;1730857;82;21039;-81
2022/10/15 00:59:27;;;;;;;54.63;31.93;;;;;;;8.75;100.00;98001.89;1731126;82;21566;-80
2022/10/15 01:01:53;;;;;;;56.60;31.17;;;;;;;8.68;100.00;97994.58;1730992;82;21063;-81
2022/10/15 01:04:19;;;;;;;57.33;33.28;;;;;;;8.62;100.00;98004.55;1714672;81;21083;-80
2022/10/15 01:06:45;;;;;;;51.42;31.75;;;;;;;8.60;100.00;98001.31;1761202;81;21016;-80
2022/10/15 01:09:11;;;;;;;50.25;30.97;;;;;;;8.56;100.00;97988.63;1735673;81;21509;-81
2022/10/15 01:11:45;;;;;;;50.73;30.10;;;;;;;8.50;100.00;97997.24;1730758;82;21410;-81
2022/10/15 01:14:29;;;;;;;49.27;30.60;;;;;;;8.45;100.00;97999.38;1730706;82;21127;-81
2022/10/15 01:17:06;;;;;;;117.35;71.07;;;;;;;8.35;100.00;97991.25;1730223;82;21058;-81
2022/10/15 01:20:29;;;;;;;74.82;45.40;;;;;;;8.35;100.00;97991.25;1730963;82;21090;-81
2022/10/15 01:23:24;;;;;;;52.58;33.98;;;;;;;8.37;100.00;97990.98;1731010;82;21487;-80
2022/10/15 01:26:33;;;;;;;71.90;42.45;;;;;;;8.39;100.00;97984.80;1730151;82;21082;-81
2022/10/15 01:29:22;;;;;;;53.70;32.28;;;;;;;8.37;100.00;97993.69;1730880;82;22080;-80
2022/10/15 01:32:20;;;;;;;82.17;55.50;;;;;;;8.29;100.00;97976.62;1730996;82;21527;-81
2022/10/15 01:35:09;;;;;;;66.22;42.60;;;;;;;8.24;100.00;97984.72;1731239;81;20996;-80
2022/10/15 01:37:46;;;;;;;51.50;33.28;;;;;;;8.24;100.00;97977.43;1731101;82;21055;-81
2022/10/15 01:40:18;;;;;;;46.85;29.02;;;;;;;8.27;100.00;97981.48;1724693;81;21146;-81
2022/10/15 01:42:58;;;;;;;43.70;27.02;;;;;;;8.30;100.00;97979.62;1730081;82;21147;-81
2022/10/15 01:45:32;;;;;;;65.57;40.25;;;;;;;8.32;100.00;97978.81;1731095;82;21567;-81
2022/10/15 01:48:01;;;;;;;64.22;39.33;;;;;;;8.30;100.00;97969.62;1730267;82;21079;-80
2022/10/15 01:50:27;;;;;;;59.10;35.70;;;;;;;8.29;100.00;97976.11;1730698;82;21042;-81
2022/10/15 01:52:54;;;;;;;53.25;33.42;;;;;;;8.30;100.00;97970.98;1731091;82;20996;-81
2022/10/15 01:55:20;;;;;;;58.15;32.38;;;;;;;8.29;100.00;97965.81;1678428;82;21905;-81
2022/10/15 01:57:46;;;;;;;48.38;29.98;;;;;;;8.29;100.00;97965.81;1730694;82;20884;-81
2022/10/15 02:00:12;;;;;;;45.92;27.37;;;;;;;8.24;100.00;97969.33;1731009;82;20978;-80
2022/10/15 02:02:38;;;;;;;44.58;26.77;;;;;;;8.24;100.00;97965.83;1730904;82;21050;-81
2022/10/15 02:05:05;;;;;;;50.85;29.37;;;;;;;8.22;100.00;97960.70;1753881;81;21031;-80
2022/10/15 02:07:45;;;;;;;45.73;27.98;;;;;;;8.20;100.00;97963.66;1756808;81;21687;-81
2022/10/15 02:10:37;;;;;;;40.65;25.77;;;;;;;8.17;100.00;97953.92;1730824;82;21082;-81
2022/10/15 02:13:29;;;;;;;44.38;26.52;;;;;;;8.17;100.00;97949.88;1730408;82;21007;-80
2022/10/15 02:16:12;;;;;;;43.23;26.40;;;;;;;8.18;100.00;97951.48;1730870;82;21056;-80
2022/10/15 02:18:50;;;;;;;49.25;27.77;;;;;;;8.20;100.00;97952.87;1730669;82;21456;-81
2022/10/15 02:21:38;;;;;;;44.35;28.02;;;;;;;8.20;100.00;97954.22;1731138;82;21070;-80
2022/10/15 02:24:24;;;;;;;46.98;28.50;;;;;;;8.20;100.00;97954.22;1701920;82;21034;-81
2022/10/15 02:26:56;;;;;;;42.73;27.05;;;;;;;8.24;100.00;97945.58;1730838;82;21130;-81
2022/10/15 02:29:24;;;;;;;45.10;27.37;;;;;;;8.26;100.00;97948.27;1730841;82;21035;-81
2022/10/15 02:31:49;;;;;;;42.63;25.40;;;;;;;8.22;100.00;97947.20;1731002;82;21107;-80
2022/10/15 02:34:20;;;;;;;39.05;23.52;;;;;;;8.25;100.00;97941.80;1730865;82;21964;-81
2022/10/15 02:36:47;;;;;;;44.90;26.65;;;;;;;8.23;100.00;97961.50;1701364;82;38554;-81
2022/10/15 02:39:22;;;;;;;37.88;23.70;;;;;;;8.22;100.00;97953.14;1730874;82;21435;-81
2022/10/15 02:41:49;;;;;;;46.92;26.10;;;;;;;8.20;100.00;97947.98;1730857;81;21665;-81
2022/10/15 02:44:15;;;;;;;36.45;23.77;;;;;;;8.16;100.00;97949.06;1701630;82;21278;-81
2022/10/15 02:46:41;;;;;;;41.55;25.77;;;;;;;8.20;100.00;97947.98;1730680;82;21284;-81
2022/10/15 02:49:07;;;;;;;43.33;23.92;;;;;;;8.22;100.00;97951.79;1730749;82;20959;-81
2022/10/15 02:51:33;;;;;;;38.30;25.10;;;;;;;8.18;100.00;97955.54;1730798;82;20892;-81
2022/10/15 02:54:00;;;;;;;42.13;24.72;;;;;;;8.17;100.00;97964.72;1701758;82;21423;-81
2022/10/15 02:56:26;;;;;;;41.25;24.30;;;;;;;8.14;100.00;97962.02;1730959;82;21090;-81
2022/10/15 02:58:52;;;;;;;38.85;24.47;;;;;;;8.08;100.00;97948.77;1730845;82;21763;-80
2022/10/15 03:01:18;;;;;;;45.03;22.65;;;;;;;8.00;100.00;97942.53;1730842;82;20900;-81
2022/10/15 03:03:44;;;;;;;36.85;23.07;;;;;;;7.94;100.00;97940.34;1736846;81;20983;-81
2022/10/15 03:06:09;;;;;;;37.50;22.65;;;;;;;7.89;100.00;97945.20;1761164;81;20904;-81
2022/10/15 03:08:35;;;;;;;36.95;24.12;;;;;;;7.86;100.00;97943.03;1743365;81;20986;-80
2022/10/15 03:11:01;;;;;;;36.42;21.20;;;;;;;7.79;100.00;97941.66;1730886;82;21065;-81
2022/10/15 03:13:28;;;;;;;37.67;21.27;;;;;;;7.78;100.00;97937.34;1730886;82;20864;-81
2022/10/15 03:15:53;;;;;;;38.13;22.30;;;;;;;7.73;100.00;97940.81;1730914;81;21450;-81
2022/10/15 03:18:19;;;;;;;38.35;22.98;;;;;;;7.72;100.00;97941.08;1730851;82;20963;-81
2022/10/15 03:20:54;;;;;;;40.00;24.92;;;;;;;7.73;100.00;97929.21;1730994;82;21142;-81
2022/10/15 03:23:20;;;;;;;40.20;22.10;;;;;;;7.73;100.00;97929.21;1730826;82;21138;-80
2022/10/15 03:25:46;;;;;;;47.27;26.20;;;;;;;7.67;100.00;97933.76;1730903;82;20952;-81
2022/10/15 03:28:12;;;;;;;41.02;24.18;;;;;;;7.62;100.00;97930.52;1730729;82;20916;-81
2022/10/15 03:30:37;;;;;;;42.65;22.58;;;;;;;7.57;100.00;97931.83;1730983;82;20959;-80
2022/10/15 03:33:03;;;;;;;43.90;26.93;;;;;;;7.52;100.00;97921.55;1730844;82;20967;-80
2022/10/15 03:35:29;;;;;;;57.33;37.42;;;;;;;7.49;100.00;97922.89;1731093;82;21217;-80
2022/10/15 03:37:55;;;;;;;53.83;35.38;;;;;;;7.48;100.00;97924.50;1730958;82;20853;-80
2022/10/15 03:40:21;;;;;;;40.85;26.80;;;;;;;7.48;100.00;97927.20;1731032;82;20915;-81
2022/10/15 03:42:50;;;;;;;43.78;25.27;;;;;;;7.48;100.00;97924.50;1730883;82;20880;-80
2022/10/15 03:45:19;;;;;;;47.60;28.90;;;;;;;7.48;100.00;97919.92;1731141;82;21042;-80
2022/10/15 03:47:45;;;;;;;49.33;32.03;;;;;;;7.46;100.00;97915.34;1729941;82;21242;-80
2022/10/15 03:50:11;;;;;;;47.90;29.15;;;;;;;7.44;100.00;97910.75;1731182;82;21007;-81
2022/10/15 03:52:37;;;;;;;43.80;25.70;;;;;;;7.43;100.00;97910.98;1730812;82;21019;-81
2022/10/15 03:55:04;;;;;;;39.80;23.83;;;;;;;7.41;100.00;97907.20;1731113;82;20861;-81
2022/10/15 03:57:30;;;;;;;53.92;35.63;;;;;;;7.33;100.00;97903.66;1730977;82;21035;-80
2022/10/15 03:59:56;;;;;;;39.55;25.85;;;;;;;7.30;100.00;97892.88;1731091;82;21009;-81
2022/10/15 04:02:23;;;;;;;46.83;32.10;;;;;;;7.23;100.00;97899.56;1730762;82;21637;-81
2022/10/15 04:04:52;;;;;;;40.35;28.00;;;;;;;7.20;100.00;97902.25;1750773;81;21074;-80
2022/10/15 04:07:20;;;;;;;37.73;23.25;;;;;;;7.17;100.00;97893.32;1759626;81;21066;-81
2022/10/15 04:09:46;;;;;;;43.65;25.82;;;;;;;7.12;100.00;97887.11;1730270;82;21019;-80
2022/10/15 04:12:13;;;;;;;42.27;26.75;;;;;;;7.04;100.00;97887.06;1730944;82;22006;-81
2022/10/15 04:14:39;;;;;;;55.30;27.30;;;;;;;7.02;100.00;97894.06;1731033;82;20999;-81
2022/10/15 04:17:05;;;;;;;42.90;29.18;;;;;;;7.02;100.00;97885.16;1730925;82;21106;-81
2022/10/15 04:19:31;;;;;;;39.38;24.98;;;;;;;6.87;100.00;97879.13;1731140;82;21079;-81
2022/10/15 04:21:56;;;;;;;35.38;20.77;;;;;;;6.89;100.00;97878.87;1731005;82;21961;-80
2022/10/15 04:24:23;;;;;;;45.12;25.88;;;;;;;6.87;100.00;97889.91;1730805;82;21269;-80
2022/10/15 04:26:48;;;;;;;47.80;27.30;;;;;;;6.90;100.00;97871.88;1731060;82;21039;-80
2022/10/15 04:29:15;;;;;;;44.63;29.85;;;;;;;6.92;100.00;97881.87;1701718;82;20912;-80
2022/10/15 04:31:41;;;;;;;49.93;32.38;;;;;;;6.87;100.00;97880.48;1731049;82;21003;-80
2022/10/15 04:34:07;;;;;;;45.50;31.07;;;;;;;6.84;100.00;97876.97;1730880;82;21610;-80
2022/10/15 04:36:33;;;;;;;47.80;30.27;;;;;;;6.82;100.00;97870.20;1731165;82;21101;-80
2022/10/15 04:38:59;;;;;;;60.65;33.05;;;;;;;6.75;100.00;97884.72;1730673;82;21484;-81
2022/10/15 04:41:25;;;;;;;50.23;31.20;;;;;;;6.71;100.00;97872.82;1736436;81;21028;-81
2022/10/15 04:43:51;;;;;;;52.43;29.92;;;;;;;6.69;100.00;97885.73;1757671;81;20893;-80
2022/10/15 04:46:18;;;;;;;50.15;29.92;;;;;;;6.71;100.00;97875.52;1745903;82;21083;-80
2022/10/15 04:48:44;;;;;;;48.83;30.05;;;;;;;6.70;100.00;97879.81;1768433;81;21184;-80
2022/10/15 04:51:15;;;;;;;50.95;31.62;;;;;;;6.68;100.00;97877.39;1745938;82;20898;-81
2022/10/15 04:53:41;;;;;;;49.55;34.10;;;;;;;6.69;100.00;97870.12;1768474;81;21080;-81
2022/10/15 04:56:16;;;;;;;53.13;33.80;;;;;;;6.61;100.00;97871.94;1768771;81;20944;-81
2022/10/15 04:58:44;;;;;;;50.60;31.07;;;;;;;6.60;100.00;97861.70;1738416;81;21012;-80
2022/10/15 05:01:13;;;;;;;48.60;32.33;;;;;;;6.62;100.00;97868.17;1745718;82;21158;-81
2022/10/15 05:03:40;;;;;;;55.83;38.33;;;;;;;6.62;100.00;97862.25;1768520;81;21079;-80
2022/10/15 05:06:09;;;;;;;56.33;38.48;;;;;;;6.62;100.00;97861.45;1780205;80;21062;-80
2022/10/15 05:08:35;;;;;;;50.90;32.28;;;;;;;6.62;100.00;97867.64;1743475;81;21558;-80
2022/10/15 05:11:04;;;;;;;79.05;45.35;;;;;;;6.61;100.00;97866.02;1731111;82;21031;-80
2022/10/15 05:13:29;;;;;;;;;;;;;;;6.57;100.00;97868.13;1733108;82;21046;-81
2022/10/15 05:15:55;;;;;;;58.38;34.48;;;;;;;6.55;100.00;97868.92;1731011;82;20297;-81
2022/10/15 05:18:21;;;;;;;57.35;36.10;;;;;;;6.57;100.00;97871.62;1730752;82;20904;-80
2022/10/15 05:20:47;;;;;;;49.03;29.23;;;;;;;6.61;100.00;97876.79;1701890;82;20943;-80
2022/10/15 05:23:13;;;;;;;44.00;25.62;;;;;;;6.66;100.00;97869.27;1730800;82;21127;-80
2022/10/15 05:25:39;;;;;;;39.58;24.98;;;;;;;6.66;100.00;97859.31;1731118;82;21161;-80
2022/10/15 05:28:05;;;;;;;46.25;25.92;;;;;;;6.67;100.00;97869.03;1730815;82;20892;-80
2022/10/15 05:30:32;;;;;;;50.23;27.20;;;;;;;6.72;100.00;97865.55;1730845;82;20907;-80
2022/10/15 05:32:57;;;;;;;73.70;52.45;;;;;;;6.78;100.00;97868.03;1730832;82;21031;-80
2022/10/15 05:35:23;;;;;;;60.33;41.25;;;;;;;6.86;100.00;97867.28;1731200;82;20979;-80
2022/10/15 05:37:49;;;;;;;37.55;22.85;;;;;;;6.93;100.00;97871.38;1730679;82;21340;-80
2022/10/15 05:40:15;;;;;;;43.15;24.47;;;;;;;7.00;100.00;97863.84;1731026;82;20940;-80
2022/10/15 05:42:41;;;;;;;42.40;24.40;;;;;;;7.06;100.00;97868.74;1730800;81;21605;-81
2022/10/15 05:45:08;;;;;;;34.23;22.52;;;;;;;7.10;100.00;97871.75;1731079;82;21290;-80
2022/10/15 05:47:34;;;;;;;48.83;26.17;;;;;;;7.16;100.00;97873.38;1730834;82;21090;-81
2022/10/15 05:50:00;;;;;;;46.05;28.70;;;;;;;7.22;100.00;97879.89;1731210;82;21852;-80
2022/10/15 05:52:26;;;;;;;48.87;34.95;;;;;;;7.26;100.00;97876.13;1730598;82;21045;-81
2022/10/15 05:54:52;;;;;;;53.75;31.90;;;;;;;7.31;100.00;97881.55;1702199;82;21031;-80
2022/10/15 05:57:18;;;;;;;43.73;31.12;;;;;;;7.40;100.00;97885.37;1730903;82;20896;-81
2022/10/15 05:59:44;;;;;;;47.17;28.23;;;;;;;7.46;100.00;97882.98;1731025;82;20885;-80
2022/10/15 06:02:14;;;;;;;44.42;27.70;;;;;;;7.56;100.00;97875.47;1730955;82;21059;-80
2022/10/15 06:04:37;;;;;;;56.15;31.07;;;;;;;7.57;100.00;97875.73;1747667;81;21038;-81
2022/10/15 06:07:03;;;;;;;47.17;29.77;;;;;;;7.68;100.00;97875.23;1761157;81;20912;-81
2022/10/15 06:09:29;;;;;;;50.05;30.52;;;;;;;7.76;100.00;97874.19;1758069;81;20889;-81
2022/10/15 06:11:55;;;;;;;55.15;35.00;;;;;;;7.88;100.00;97866.69;1757167;81;20956;-81
2022/10/15 06:14:21;;;;;;;58.68;37.33;;;;;;;7.95;100.00;97870.48;1745484;82;21947;-81
2022/10/15 06:16:49;;;;;;;65.35;39.45;;;;;;;8.06;100.00;97872.13;1768659;81;20960;-81
2022/10/15 06:19:15;;;;;;;56.80;37.35;;;;;;;8.16;100.00;97878.88;1768387;81;21027;-80
2022/10/15 06:21:41;;;;;;;58.45;37.08;;;;;;;8.23;100.00;97874.58;1768398;81;21055;-82
2022/10/15 06:24:07;;;;;;;59.23;34.43;;;;;;;8.27;100.00;97872.15;1745622;82;20885;-81
2022/10/15 06:26:33;;;;;;;48.48;30.52;;;;;;;8.40;100.00;97882.47;1768763;81;21328;-81
2022/10/15 06:28:59;;;;;;;49.50;30.77;;;;;;;8.55;100.00;97890.59;1745383;82;20938;-81
2022/10/15 06:31:25;;;;;;;38.17;22.90;;;;;;;8.70;100.00;97887.86;1768485;81;20944;-81
2022/10/15 06:33:51;;;;;;;38.40;24.72;;;;;;;8.94;100.00;97892.17;1745522;81;20893;-81
2022/10/15 06:36:17;;;;;;;40.10;25.68;;;;;;;9.42;100.00;97892.64;1768614;81;20877;-81
2022/10/15 06:38:43;;;;;;;43.80;27.05;;;;;;;9.67;100.00;97886.88;1768279;81;22049;-80
2022/10/15 06:41:09;;;;;;;37.13;24.70;;;;;;;9.81;100.00;97894.64;1768559;81;20897;-81
2022/10/15 06:43:35;;;;;;;36.65;26.95;;;;;;;9.95;100.00;97893.51;1768243;81;21015;-81
2022/10/15 06:46:01;;;;;;;43.20;27.62;;;;;;;10.07;100.00;97885.30;1745755;82;21013;-81
2022/10/15 06:48:27;;;;;;;33.42;20.90;;;;;;;10.24;100.00;97889.58;1768210;81;21024;-81
2022/10/15 06:50:53;;;;;;;46.40;29.45;;;;;;;10.67;100.00;97890.63;1776593;80;20890;-81
2022/10/15 06:53:19;;;;;;;42.27;25.48;;;;;;;11.02;100.00;97893.57;1745249;82;21564;-81
2022/10/15 06:55:44;;;;;;;37.40;23.00;;;;;;;11.26;100.00;97889.55;1744783;81;20974;-81
2022/10/15 06:58:10;;;;;;;29.72;20.95;;;;;;;11.41;100.00;97883.97;1735765;81;20866;-81
2022/10/15 07:00:36;;;;;;;37.85;20.60;;;;;;;11.58;100.00;97884.31;1755275;81;20920;-81
2022/10/15 07:03:05;;;;;;;28.60;18.98;;;;;;;11.78;100.00;97886.52;1743598;80;21817;-81
2022/10/15 07:05:31;;;;;;;21.05;12.47;;;;;;;12.25;100.00;97880.23;1763305;80;21111;-81
2022/10/15 07:07:57;;;;;;;22.40;16.32;;;;;;;13.01;100.00;97875.50;1756735;80;21448;-81
2022/10/15 07:10:24;;;;;;;19.45;14.23;;;;;;;13.74;100.00;97876.03;1745259;81;21035;-81
2022/10/15 07:12:50;;;;;;;17.20;13.58;;;;;;;14.29;100.00;97878.69;1746697;80;21042;-81
2022/10/15 07:15:16;;;;;;;17.23;14.40;;;;;;;14.78;99.61;97863.92;1763497;80;21165;-81
2022/10/15 07:17:49;;;;;;;19.80;14.58;;;;;;;15.14;94.51;97876.13;1756457;80;21083;-81
2022/10/15 07:20:15;;;;;;;18.73;14.03;;;;;;;15.37;90.41;97870.05;1752885;80;21039;-81
2022/10/15 07:22:41;;;;;;;18.27;12.65;;;;;;;15.75;89.40;97875.86;1761055;80;21075;-81
2022/10/15 07:25:08;;;;;;;16.32;13.10;;;;;;;15.99;87.00;97872.72;1748543;80;21815;-81
2022/10/15 07:27:36;;;;;;;17.23;12.23;;;;;;;16.03;84.36;97869.58;1748932;80;21130;-81
2022/10/15 07:30:03;;;;;;;16.37;12.05;;;;;;;15.98;85.23;97876.55;1757054;80;21464;-81
2022/10/15 07:32:29;;;;;;;17.92;13.03;;;;;;;15.93;79.98;97878.08;1770018;80;21051;-81
2022/10/15 07:34:55;;;;;;;15.88;12.28;;;;;;;15.91;83.05;97881.70;1761224;81;20988;-81
2022/10/15 07:37:21;;;;;;;19.17;13.43;;;;;;;15.87;84.69;97888.34;1756343;81;20984;-81
2022/10/15 07:39:47;;;;;;;19.77;13.75;;;;;;;15.86;83.97;97894.94;1751771;81;21175;-81
2022/10/15 07:42:13;;;;;;;24.87;12.98;;;;;;;15.84;85.94;97887.63;1748153;81;20936;-81
2022/10/15 07:44:39;;;;;;;18.25;12.20;;;;;;;15.88;83.80;97889.95;1745822;80;21638;-81
2022/10/15 07:47:06;;;;;;;13.85;11.97;;;;;;;15.92;83.41;97897.77;1749624;80;20961;-81
2022/10/15 07:49:32;;;;;;;21.55;13.08;;;;;;;15.95;83.43;97890.30;1754673;80;21048;-81
2022/10/15 07:51:58;;;;;;;17.95;11.95;;;;;;;16.04;80.05;97893.05;1751754;81;21297;-81
2022/10/15 07:54:24;;;;;;;16.80;12.03;;;;;;;16.16;82.37;97889.16;1750172;80;21027;-81
2022/10/15 07:56:50;;;;;;;19.65;13.20;;;;;;;16.35;79.25;97883.38;1792790;80;20865;-81
2022/10/15 07:59:16;;;;;;;14.90;11.93;;;;;;;16.41;79.81;97878.55;1755111;80;20968;-82
2022/10/15 08:01:42;;;;;;;13.55;10.78;;;;;;;16.51;78.49;97886.45;1731121;81;20913;-81
2022/10/15 08:04:07;;;;;;;19.67;11.80;;;;;;;16.65;75.58;97884.34;1755180;80;21154;-81
2022/10/15 08:06:34;;;;;;;18.70;11.22;;;;;;;16.61;75.05;97875.98;1749683;80;20936;-81
2022/10/15 08:08:59;;;;;;;15.93;12.65;;;;;;;16.62;76.29;97869.39;1742860;80;21020;-81
2022/10/15 08:11:25;;;;;;;16.45;11.90;;;;;;;16.67;76.15;97879.94;1792695;80;20933;-81
2022/10/15 08:13:51;;;;;;;23.07;15.28;;;;;;;16.69;73.52;97871.67;1766270;80;21768;-81
2022/10/15 08:16:19;;;;;;;16.60;10.93;;;;;;;16.64;73.09;97882.17;1756673;80;21050;-81
2022/10/15 08:18:45;;;;;;;23.15;15.58;;;;;;;16.79;71.93;97875.45;1739413;80;21008;-81
2022/10/15 08:21:11;;;;;;;14.45;11.53;;;;;;;16.81;71.45;97869.64;1730989;81;21009;-82
2022/10/15 08:23:37;;;;;;;15.35;10.45;;;;;;;17.31;70.77;97879.45;1737646;81;20906;-82
2022/10/15 08:26:03;;;;;;;19.62;10.85;;;;;;;18.10;66.92;97874.44;1757853;80;21101;-82
2022/10/15 08:28:29;;;;;;;17.77;13.65;;;;;;;18.83;62.42;97873.52;1765996;80;20989;-82
2022/10/15 08:31:00;;;;;;;12.98;10.98;;;;;;;19.13;65.87;97875.55;1784412;80;21047;-81
2022/10/15 08:33:27;;;;;;;14.13;9.75;;;;;;;19.24;62.79;97879.49;1739245;80;21037;-82
2022/10/15 08:35:53;;;;;;;10.78;8.95;;;;;;;19.29;61.95;97879.83;1724042;81;21447;-82
2022/10/15 08:38:18;;;;;;;14.13;10.18;;;;;;;18.71;62.84;97877.56;1756454;81;20891;-82
2022/10/15 08:40:58;;;;;;;12.28;10.05;;;;;;;18.34;64.20;97870.48;1751348;81;21307;-81
2022/10/15 08:43:37;;;;;;;12.15;10.28;;;;;;;18.15;62.39;97864.09;1781228;80;21008;-81
2022/10/15 08:46:07;;;;;;;;;;;;;;;17.98;63.32;97882.82;1764435;80;21016;-81
2022/10/15 08:48:39;;;;;;;11.43;8.90;;;;;;;17.81;65.17;97879.37;1792421;80;20454;-81
2022/10/15 08:51:10;;;;;;;16.12;10.55;;;;;;;17.78;63.44;97874.56;1760852;80;21500;-81
2022/10/15 08:53:48;;;;;;;13.58;9.68;;;;;;;17.73;66.34;97885.92;1767188;80;21135;-81
2022/10/15 08:56:21;;;;;;;11.45;9.50;;;;;;;17.79;66.02;97888.49;1792720;80;21021;-81
2022/10/15 08:59:04;;;;;;;14.10;9.70;;;;;;;17.78;64.04;97885.52;1792122;80;20997;-81
2022/10/15 09:01:36;;;;;;;17.62;9.73;;;;;;;17.79;64.70;97889.86;1779114;80;21032;-81
2022/10/15 09:04:16;;;;;;;13.05;9.83;;;;;;;17.87;65.12;97884.34;1746317;81;21113;-82
2022/10/15 09:06:42;;;;;;;11.53;9.53;;;;;;;18.01;64.78;97888.20;1730614;82;21159;-81
2022/10/15 09:09:49;;;;;;;12.95;9.50;;;;;;;18.01;64.93;97893.11;1737699;81;20884;-81
2022/10/15 09:12:54;;;;;;;16.40;9.35;;;;;;;18.14;62.80;97889.91;1730553;82;21062;-81
2022/10/15 09:15:20;;;;;;;13.58;9.58;;;;;;;18.20;62.90;97902.30;1731327;82;21022;-81
2022/10/15 09:17:50;;;;;;;17.30;9.53;;;;;;;18.13;63.86;97904.75;1764239;80;21035;-81
2022/10/15 09:20:25;;;;;;;7.78;6.83;;;;;;;18.23;63.83;97913.16;1731589;81;21832;-82
2022/10/15 09:22:51;;;;;;;15.80;9.50;;;;;;;18.37;62.83;97908.78;1731362;81;22115;-82
2022/10/15 09:25:21;;;;;;;12.95;8.78;;;;;;;18.30;63.72;97908.77;1751618;81;20949;-82
2022/10/15 09:27:48;;;;;;;12.70;9.05;;;;;;;18.30;61.87;97906.02;1763632;80;21052;-82
2022/10/15 09:30:40;;;;;;;10.82;8.90;;;;;;;18.12;62.73;97903.16;1747614;80;21894;-81
2022/10/15 09:33:39;;;;;;;14.03;9.38;;;;;;;18.07;63.32;97910.19;1743268;80;21850;-81
2022/10/15 09:36:28;;;;;;;11.75;8.18;;;;;;;18.15;62.25;97917.56;1756472;80;21576;-81
2022/10/15 09:39:24;;;;;;;14.98;8.70;;;;;;;18.02;62.64;97902.94;1754581;80;21050;-81
2022/10/15 09:42:29;;;;;;;13.40;9.43;;;;;;;17.97;62.69;97905.89;1736221;80;21016;-81
2022/10/15 09:44:59;;;;;;;9.48;7.70;;;;;;;17.95;62.33;97904.62;1748754;81;21054;-81
2022/10/15 09:47:29;;;;;;;12.45;7.62;;;;;;;17.92;63.17;97913.48;1732679;80;21481;-82
2022/10/15 09:49:55;;;;;;;11.45;8.05;;;;;;;18.02;61.79;97913.10;1752320;81;21023;-81
2022/10/15 09:52:29;;;;;;;9.38;7.78;;;;;;;18.05;61.88;97908.34;1730845;82;21047;-81
2022/10/15 09:55:19;;;;;;;14.90;7.33;;;;;;;18.03;61.57;97910.05;1749895;80;21059;-81
2022/10/15 09:57:51;;;;;;;10.98;7.97;;;;;;;17.99;62.88;97918.69;1744656;80;21098;-81
2022/10/15 10:00:17;;;;;;;13.15;7.60;;;;;;;18.06;61.19;97914.63;1760637;81;21594;-81
2022/10/15 10:02:43;;;;;;;12.70;8.45;;;;;;;18.01;62.34;97911.50;1750387;81;22225;-81
2022/10/15 10:05:31;;;;;;;11.57;8.58;;;;;;;18.16;59.37;97914.25;1730733;81;20904;-81
2022/10/15 10:08:23;;;;;;;15.48;8.28;;;;;;;17.84;61.46;97908.84;1709319;80;21539;-81
2022/10/15 10:10:58;;;;;;;11.28;7.83;;;;;;;17.76;61.60;97917.34;1783123;80;21352;-81
2022/10/15 10:13:41;;;;;;;11.53;9.05;;;;;;;17.66;63.52;97915.73;1758430;80;21046;-81
2022/10/15 10:16:11;;;;;;;11.40;6.83;;;;;;;17.69;62.90;97910.99;1749165;80;21023;-81
2022/10/15 10:18:36;;;;;;;9.65;7.20;;;;;;;17.70;61.25;97901.66;1736023;81;20991;-81
2022/10/15 10:21:25;;;;;;;11.50;8.58;;;;;;;17.60;61.92;97906.08;1735476;81;21549;-81
2022/10/15 10:23:51;;;;;;;;;;;;;;;17.57;61.96;97907.31;1759742;80;21022;-81
2022/10/15 10:26:17;;;;;;;14.00;8.13;;;;;;;17.53;63.52;97898.16;1778764;80;21134;-81
2022/10/15 10:28:54;;;;;;;14.43;9.58;;;;;;;17.47;62.40;97904.37;1760539;80;20935;-81
2022/10/15 10:31:29;;;;;;;8.45;7.40;;;;;;;17.47;62.92;97904.37;1760593;81;21011;-81
2022/10/15 10:33:55;;;;;;;12.00;8.15;;;;;;;17.44;62.91;97904.47;1761475;81;20942;-81
2022/10/15 10:36:30;;;;;;;10.38;7.00;;;;;;;17.48;63.11;97901.30;1761509;81;21097;-81
2022/10/15 10:39:14;;;;;;;9.85;6.05;;;;;;;17.56;62.22;97896.92;1749666;80;21739;-81
2022/10/15 10:42:01;;;;;;;17.20;7.47;;;;;;;17.61;62.41;97901.44;1790809;80;21000;-81
2022/10/15 10:44:35;;;;;;;9.00;6.80;;;;;;;17.64;62.38;97906.25;1791946;80;21599;-81
2022/10/15 10:47:11;;;;;;;9.23;7.35;;;;;;;17.76;61.36;97907.75;1792451;80;21509;-81
2022/10/15 10:49:49;;;;;;;11.08;8.25;;;;;;;17.84;62.19;97908.27;1758215;80;21084;-81
2022/10/15 10:52:32;;;;;;;23.00;13.60;;;;;;;17.88;61.45;97907.87;1761370;81;22038;-81
2022/10/15 10:55:08;;;;;;;13.55;8.25;;;;;;;17.92;61.31;97912.11;1788943;80;21199;-81
2022/10/15 10:57:54;;;;;;;11.50;7.42;;;;;;;17.91;61.37;97912.68;1751802;80;21516;-81
2022/10/15 11:00:31;;;;;;;53.75;24.18;;;;;;;17.82;60.84;97912.48;1729056;82;21048;-82
2022/10/15 11:02:57;;;;;;;38.17;22.75;;;;;;;17.83;61.21;97915.47;1708490;82;21039;-81
2022/10/15 11:05:29;;;;;;;43.33;19.80;;;;;;;17.86;61.21;97912.05;1757736;81;21323;-81
2022/10/15 11:08:12;;;;;;;16.27;11.48;;;;;;;17.88;60.06;97917.47;1761045;81;21070;-81
2022/10/15 11:11:05;;;;;;;16.97;11.18;;;;;;;17.84;60.29;97917.87;1733494;81;21063;-81
2022/10/15 11:13:48;;;;;;;41.45;18.65;;;;;;;17.81;60.61;97912.25;1748730;81;21008;-81
2022/10/15 11:16:43;;;;;;;31.90;20.25;;;;;;;17.98;58.56;97910.80;1759339;81;21068;-81
2022/10/15 11:19:26;;;;;;;48.68;24.90;;;;;;;17.97;59.10;97916.85;1759653;81;21309;-81
2022/10/15 11:22:20;;;;;;;15.32;11.30;;;;;;;18.07;59.40;97923.89;1747240;81;22215;-81
2022/10/15 11:25:14;;;;;;;22.62;11.25;;;;;;;18.06;58.75;97920.92;1726548;81;21403;-81
2022/10/15 11:28:06;;;;;;;22.10;12.63;;;;;;;18.07;57.37;97925.83;1751018;81;21019;-81
2022/10/15 11:31:01;;;;;;;54.53;27.87;;;;;;;18.03;57.12;97918.28;1751265;81;21077;-81
2022/10/15 11:34:15;;;;;;;21.23;13.72;;;;;;;18.00;57.67;97929.09;1750861;81;22022;-81
2022/10/15 11:36:50;;;;;;;24.80;13.72;;;;;;;17.94;58.14;97921.61;1751955;81;20975;-81
2022/10/15 11:39:42;;;;;;;25.10;12.03;;;;;;;17.97;57.13;97911.94;1750662;81;20994;-82